Bratislava, Slovakia
Current Conditions -  °F | °C
As of 6:30 PM on Monday 26 Jan 2015 (Local Time) from LZIB Reporting Station
Clear Clear  
Wind Chill: 32°   Ceiling: Unl
Heat Index: 32°   Visibility: 6mi
Dew Point: 23°   Wind: 2mph
Humidity: 69%   Direction: 340°NNW
Pressure: 30.21"   Gusts: NA
Location:  48.16°N, 17.13°E
Report Text: LZIB 261630Z 34002KT CAVOK 00/M05 Q1023 R88/CLRD// NOSIG
Loading
Personal Weather Stations






























Interactive Weather Map New forecast layout! Learn more

10-Day Weather Forecast

Advertisements
Track Severe Weather on mobile